sensor_id;sensor_type;location;lat;lon;timestamp;P1;durP1;ratioP1;P2;durP2;ratioP2
67737;SDS011;54534;43.612;1.572;2023-02-16T00:01:50;13.25;;;3.83;;
67737;SDS011;54534;43.612;1.572;2023-02-16T00:04:18;3.50;;;2.53;;
67737;SDS011;54534;43.612;1.572;2023-02-16T00:06:48;4.10;;;2.30;;
67737;SDS011;54534;43.612;1.572;2023-02-16T00:09:14;6.43;;;2.73;;
67737;SDS011;54534;43.612;1.572;2023-02-16T00:11:39;4.07;;;2.00;;
67737;SDS011;54534;43.612;1.572;2023-02-16T00:14:24;4.47;;;2.70;;
67737;SDS011;54534;43.612;1.572;2023-02-16T00:16:53;4.13;;;2.33;;
67737;SDS011;54534;43.612;1.572;2023-02-16T00:19:24;4.73;;;2.70;;
67737;SDS011;54534;43.612;1.572;2023-02-16T00:21:55;4.57;;;2.30;;
67737;SDS011;54534;43.612;1.572;2023-02-16T00:24:23;4.60;;;2.27;;
67737;SDS011;54534;43.612;1.572;2023-02-16T00:26:50;3.97;;;2.20;;
67737;SDS011;54534;43.612;1.572;2023-02-16T00:31:52;4.50;;;2.23;;
67737;SDS011;54534;43.612;1.572;2023-02-16T00:34:32;3.93;;;2.27;;
67737;SDS011;54534;43.612;1.572;2023-02-16T00:37:01;4.93;;;2.20;;
67737;SDS011;54534;43.612;1.572;2023-02-16T00:39:29;3.67;;;2.13;;
67737;SDS011;54534;43.612;1.572;2023-02-16T00:41:55;3.83;;;2.00;;
67737;SDS011;54534;43.612;1.572;2023-02-16T00:44:26;3.60;;;2.50;;
67737;SDS011;54534;43.612;1.572;2023-02-16T00:46:57;3.57;;;2.00;;
67737;SDS011;54534;43.612;1.572;2023-02-16T00:49:25;6.68;;;2.13;;
67737;SDS011;54534;43.612;1.572;2023-02-16T00:51:51;3.73;;;2.30;;
67737;SDS011;54534;43.612;1.572;2023-02-16T00:54:16;2.87;;;2.03;;
67737;SDS011;54534;43.612;1.572;2023-02-16T00:56:41;3.00;;;2.40;;
67737;SDS011;54534;43.612;1.572;2023-02-16T00:59:08;4.30;;;2.20;;
67737;SDS011;54534;43.612;1.572;2023-02-16T01:01:39;5.83;;;2.67;;
67737;SDS011;54534;43.612;1.572;2023-02-16T01:04:06;4.97;;;2.70;;
67737;SDS011;54534;43.612;1.572;2023-02-16T01:06:34;4.72;;;2.25;;
67737;SDS011;54534;43.612;1.572;2023-02-16T01:09:18;3.10;;;2.27;;
67737;SDS011;54534;43.612;1.572;2023-02-16T01:12:05;4.13;;;1.80;;
67737;SDS011;54534;43.612;1.572;2023-02-16T01:14:37;2.87;;;2.00;;
67737;SDS011;54534;43.612;1.572;2023-02-16T01:17:03;2.57;;;2.00;;
67737;SDS011;54534;43.612;1.572;2023-02-16T01:19:28;3.90;;;2.13;;
67737;SDS011;54534;43.612;1.572;2023-02-16T01:21:53;4.00;;;2.20;;
67737;SDS011;54534;43.612;1.572;2023-02-16T01:24:19;2.40;;;2.07;;
67737;SDS011;54534;43.612;1.572;2023-02-16T01:26:48;3.33;;;2.00;;
67737;SDS011;54534;43.612;1.572;2023-02-16T01:29:18;5.30;;;2.30;;
67737;SDS011;54534;43.612;1.572;2023-02-16T01:31:45;2.70;;;2.30;;
67737;SDS011;54534;43.612;1.572;2023-02-16T01:34:11;4.67;;;2.07;;
67737;SDS011;54534;43.612;1.572;2023-02-16T01:36:41;2.27;;;1.90;;
67737;SDS011;54534;43.612;1.572;2023-02-16T01:39:12;4.43;;;2.00;;
67737;SDS011;54534;43.612;1.572;2023-02-16T01:44:33;2.67;;;1.93;;
67737;SDS011;54534;43.612;1.572;2023-02-16T01:49:56;3.73;;;2.27;;
67737;SDS011;54534;43.612;1.572;2023-02-16T01:52:56;3.47;;;1.80;;
67737;SDS011;54534;43.612;1.572;2023-02-16T01:55:29;3.63;;;1.83;;
67737;SDS011;54534;43.612;1.572;2023-02-16T01:58:13;2.63;;;1.90;;
67737;SDS011;54534;43.612;1.572;2023-02-16T02:03:25;2.23;;;2.03;;
67737;SDS011;54534;43.612;1.572;2023-02-16T02:06:17;3.17;;;2.33;;
67737;SDS011;54534;43.612;1.572;2023-02-16T02:17:02;3.30;;;2.17;;
67737;SDS011;54534;43.612;1.572;2023-02-16T02:19:37;2.27;;;1.77;;
67737;SDS011;54534;43.612;1.572;2023-02-16T02:36:07;4.10;;;1.83;;
67737;SDS011;54534;43.612;1.572;2023-02-16T02:38:39;2.40;;;1.90;;
67737;SDS011;54534;43.612;1.572;2023-02-16T02:41:34;2.70;;;2.03;;
67737;SDS011;54534;43.612;1.572;2023-02-16T02:44:25;3.83;;;2.30;;
67737;SDS011;54534;43.612;1.572;2023-02-16T02:46:52;3.03;;;1.97;;
67737;SDS011;54534;43.612;1.572;2023-02-16T02:49:19;2.17;;;1.90;;
67737;SDS011;54534;43.612;1.572;2023-02-16T02:51:44;2.13;;;1.90;;
67737;SDS011;54534;43.612;1.572;2023-02-16T02:57:10;4.07;;;2.00;;
67737;SDS011;54534;43.612;1.572;2023-02-16T03:05:30;2.30;;;2.00;;
67737;SDS011;54534;43.612;1.572;2023-02-16T03:07:59;1.67;;;1.50;;
67737;SDS011;54534;43.612;1.572;2023-02-16T03:10:30;2.30;;;1.73;;
67737;SDS011;54534;43.612;1.572;2023-02-16T03:13:20;3.73;;;1.90;;
67737;SDS011;54534;43.612;1.572;2023-02-16T03:15:50;1.87;;;1.77;;
67737;SDS011;54534;43.612;1.572;2023-02-16T03:18:20;1.80;;;1.70;;
67737;SDS011;54534;43.612;1.572;2023-02-16T03:21:08;2.13;;;1.93;;
67737;SDS011;54534;43.612;1.572;2023-02-16T03:23:55;2.53;;;1.97;;
67737;SDS011;54534;43.612;1.572;2023-02-16T03:26:42;3.67;;;1.80;;
67737;SDS011;54534;43.612;1.572;2023-02-16T03:29:26;1.97;;;1.80;;
67737;SDS011;54534;43.612;1.572;2023-02-16T03:31:53;2.73;;;2.07;;
67737;SDS011;54534;43.612;1.572;2023-02-16T03:34:21;2.40;;;2.20;;
67737;SDS011;54534;43.612;1.572;2023-02-16T03:36:51;2.97;;;1.90;;
67737;SDS011;54534;43.612;1.572;2023-02-16T03:39:23;3.97;;;2.10;;
67737;SDS011;54534;43.612;1.572;2023-02-16T03:41:50;2.27;;;2.07;;
67737;SDS011;54534;43.612;1.572;2023-02-16T03:44:18;3.73;;;2.07;;
67737;SDS011;54534;43.612;1.572;2023-02-16T03:46:44;2.00;;;1.70;;
67737;SDS011;54534;43.612;1.572;2023-02-16T03:49:09;3.73;;;2.07;;
67737;SDS011;54534;43.612;1.572;2023-02-16T03:51:35;2.30;;;2.10;;
67737;SDS011;54534;43.612;1.572;2023-02-16T03:54:01;2.73;;;2.00;;
67737;SDS011;54534;43.612;1.572;2023-02-16T03:56:27;2.17;;;1.77;;
67737;SDS011;54534;43.612;1.572;2023-02-16T03:58:52;1.93;;;1.83;;
67737;SDS011;54534;43.612;1.572;2023-02-16T04:01:18;2.23;;;1.90;;
67737;SDS011;54534;43.612;1.572;2023-02-16T04:03:43;2.57;;;1.73;;
67737;SDS011;54534;43.612;1.572;2023-02-16T04:06:08;2.23;;;1.97;;
67737;SDS011;54534;43.612;1.572;2023-02-16T04:08:34;2.00;;;1.80;;
67737;SDS011;54534;43.612;1.572;2023-02-16T04:11:00;2.50;;;2.10;;
67737;SDS011;54534;43.612;1.572;2023-02-16T04:13:45;3.53;;;2.10;;
67737;SDS011;54534;43.612;1.572;2023-02-16T04:16:10;2.23;;;1.97;;
67737;SDS011;54534;43.612;1.572;2023-02-16T04:18:36;2.30;;;2.10;;
67737;SDS011;54534;43.612;1.572;2023-02-16T04:21:01;3.33;;;2.23;;
67737;SDS011;54534;43.612;1.572;2023-02-16T04:23:27;2.10;;;1.87;;
67737;SDS011;54534;43.612;1.572;2023-02-16T04:25:52;2.23;;;1.80;;
67737;SDS011;54534;43.612;1.572;2023-02-16T04:28:17;1.97;;;1.77;;
67737;SDS011;54534;43.612;1.572;2023-02-16T04:30:43;2.17;;;1.80;;
67737;SDS011;54534;43.612;1.572;2023-02-16T04:33:08;1.90;;;1.80;;
67737;SDS011;54534;43.612;1.572;2023-02-16T04:35:33;2.20;;;1.97;;
67737;SDS011;54534;43.612;1.572;2023-02-16T04:37:59;3.03;;;2.23;;
67737;SDS011;54534;43.612;1.572;2023-02-16T04:40:25;2.13;;;2.00;;
67737;SDS011;54534;43.612;1.572;2023-02-16T04:42:50;2.00;;;1.80;;
67737;SDS011;54534;43.612;1.572;2023-02-16T04:45:15;3.50;;;2.30;;
67737;SDS011;54534;43.612;1.572;2023-02-16T04:47:41;4.53;;;2.40;;
67737;SDS011;54534;43.612;1.572;2023-02-16T04:50:06;2.67;;;2.17;;
67737;SDS011;54534;43.612;1.572;2023-02-16T04:52:32;2.23;;;2.00;;
67737;SDS011;54534;43.612;1.572;2023-02-16T04:54:58;2.33;;;1.97;;
67737;SDS011;54534;43.612;1.572;2023-02-16T04:57:23;4.03;;;2.10;;
67737;SDS011;54534;43.612;1.572;2023-02-16T04:59:49;2.53;;;2.07;;
67737;SDS011;54534;43.612;1.572;2023-02-16T05:02:14;3.23;;;2.30;;
67737;SDS011;54534;43.612;1.572;2023-02-16T05:04:40;2.57;;;2.27;;
67737;SDS011;54534;43.612;1.572;2023-02-16T05:07:06;2.53;;;2.13;;
67737;SDS011;54534;43.612;1.572;2023-02-16T05:09:32;2.30;;;1.93;;
67737;SDS011;54534;43.612;1.572;2023-02-16T05:11:57;4.93;;;2.27;;
67737;SDS011;54534;43.612;1.572;2023-02-16T05:14:41;2.00;;;1.87;;
67737;SDS011;54534;43.612;1.572;2023-02-16T05:17:17;2.73;;;2.40;;
67737;SDS011;54534;43.612;1.572;2023-02-16T05:19:51;2.30;;;2.10;;
67737;SDS011;54534;43.612;1.572;2023-02-16T05:22:18;2.43;;;2.23;;
67737;SDS011;54534;43.612;1.572;2023-02-16T05:24:44;3.13;;;2.40;;
67737;SDS011;54534;43.612;1.572;2023-02-16T05:27:11;3.13;;;2.00;;
67737;SDS011;54534;43.612;1.572;2023-02-16T05:29:41;2.50;;;2.30;;
67737;SDS011;54534;43.612;1.572;2023-02-16T05:32:06;3.00;;;2.10;;
67737;SDS011;54534;43.612;1.572;2023-02-16T05:34:32;2.20;;;2.00;;
67737;SDS011;54534;43.612;1.572;2023-02-16T05:36:57;2.80;;;2.13;;
67737;SDS011;54534;43.612;1.572;2023-02-16T05:39:23;3.03;;;2.23;;
67737;SDS011;54534;43.612;1.572;2023-02-16T05:41:48;2.93;;;1.97;;
67737;SDS011;54534;43.612;1.572;2023-02-16T05:44:14;3.03;;;2.30;;
67737;SDS011;54534;43.612;1.572;2023-02-16T05:46:40;3.20;;;2.20;;
67737;SDS011;54534;43.612;1.572;2023-02-16T05:49:06;2.53;;;2.27;;
67737;SDS011;54534;43.612;1.572;2023-02-16T05:51:32;2.83;;;2.50;;
67737;SDS011;54534;43.612;1.572;2023-02-16T05:53:58;2.60;;;2.03;;
67737;SDS011;54534;43.612;1.572;2023-02-16T05:56:24;2.20;;;2.00;;
67737;SDS011;54534;43.612;1.572;2023-02-16T05:58:49;3.50;;;2.93;;
67737;SDS011;54534;43.612;1.572;2023-02-16T06:01:16;3.77;;;2.20;;
67737;SDS011;54534;43.612;1.572;2023-02-16T06:03:42;3.40;;;2.20;;
67737;SDS011;54534;43.612;1.572;2023-02-16T06:06:08;7.30;;;2.30;;
67737;SDS011;54534;43.612;1.572;2023-02-16T06:08:33;3.40;;;2.33;;
67737;SDS011;54534;43.612;1.572;2023-02-16T06:11:00;6.87;;;2.70;;
67737;SDS011;54534;43.612;1.572;2023-02-16T06:13:26;8.10;;;2.80;;
67737;SDS011;54534;43.612;1.572;2023-02-16T06:15:52;9.67;;;2.63;;
67737;SDS011;54534;43.612;1.572;2023-02-16T06:18:19;8.00;;;2.97;;
67737;SDS011;54534;43.612;1.572;2023-02-16T06:20:44;8.77;;;3.30;;
67737;SDS011;54534;43.612;1.572;2023-02-16T06:23:11;4.23;;;2.87;;
67737;SDS011;54534;43.612;1.572;2023-02-16T06:25:39;2.93;;;2.50;;
67737;SDS011;54534;43.612;1.572;2023-02-16T06:28:05;3.93;;;2.50;;
67737;SDS011;54534;43.612;1.572;2023-02-16T06:30:31;10.13;;;2.70;;
67737;SDS011;54534;43.612;1.572;2023-02-16T06:32:57;3.50;;;2.70;;
67737;SDS011;54534;43.612;1.572;2023-02-16T06:35:22;4.13;;;2.63;;
67737;SDS011;54534;43.612;1.572;2023-02-16T06:37:48;3.73;;;2.53;;
67737;SDS011;54534;43.612;1.572;2023-02-16T06:40:14;3.40;;;2.87;;
67737;SDS011;54534;43.612;1.572;2023-02-16T06:42:40;3.27;;;2.60;;
67737;SDS011;54534;43.612;1.572;2023-02-16T06:45:06;5.83;;;3.47;;
67737;SDS011;54534;43.612;1.572;2023-02-16T06:47:33;4.67;;;2.67;;
67737;SDS011;54534;43.612;1.572;2023-02-16T06:49:58;3.03;;;2.57;;
67737;SDS011;54534;43.612;1.572;2023-02-16T06:52:24;3.90;;;2.40;;
67737;SDS011;54534;43.612;1.572;2023-02-16T06:54:49;2.80;;;2.60;;
67737;SDS011;54534;43.612;1.572;2023-02-16T06:57:15;6.43;;;2.83;;
67737;SDS011;54534;43.612;1.572;2023-02-16T06:59:40;7.93;;;2.80;;
67737;SDS011;54534;43.612;1.572;2023-02-16T07:02:06;3.40;;;2.60;;
67737;SDS011;54534;43.612;1.572;2023-02-16T07:04:31;3.10;;;2.27;;
67737;SDS011;54534;43.612;1.572;2023-02-16T07:06:57;4.87;;;2.47;;
67737;SDS011;54534;43.612;1.572;2023-02-16T07:09:22;2.30;;;2.10;;
67737;SDS011;54534;43.612;1.572;2023-02-16T07:11:47;8.03;;;2.53;;
67737;SDS011;54534;43.612;1.572;2023-02-16T07:14:13;4.87;;;2.43;;
67737;SDS011;54534;43.612;1.572;2023-02-16T07:16:39;4.70;;;2.63;;
67737;SDS011;54534;43.612;1.572;2023-02-16T07:19:05;6.10;;;2.27;;
67737;SDS011;54534;43.612;1.572;2023-02-16T07:21:31;9.27;;;2.90;;
67737;SDS011;54534;43.612;1.572;2023-02-16T07:23:56;5.43;;;2.50;;
67737;SDS011;54534;43.612;1.572;2023-02-16T07:26:22;8.17;;;2.80;;
67737;SDS011;54534;43.612;1.572;2023-02-16T07:28:47;5.67;;;2.40;;
67737;SDS011;54534;43.612;1.572;2023-02-16T07:31:13;5.73;;;2.37;;
67737;SDS011;54534;43.612;1.572;2023-02-16T07:33:40;3.77;;;2.23;;
67737;SDS011;54534;43.612;1.572;2023-02-16T07:36:07;2.90;;;2.33;;
67737;SDS011;54534;43.612;1.572;2023-02-16T07:38:33;8.13;;;2.60;;
67737;SDS011;54534;43.612;1.572;2023-02-16T07:40:58;5.73;;;3.03;;
67737;SDS011;54534;43.612;1.572;2023-02-16T07:43:24;3.67;;;2.40;;
67737;SDS011;54534;43.612;1.572;2023-02-16T07:45:50;8.30;;;2.50;;
67737;SDS011;54534;43.612;1.572;2023-02-16T07:48:16;7.40;;;2.77;;
67737;SDS011;54534;43.612;1.572;2023-02-16T07:50:41;3.13;;;2.30;;
67737;SDS011;54534;43.612;1.572;2023-02-16T07:53:07;2.63;;;2.40;;
67737;SDS011;54534;43.612;1.572;2023-02-16T07:55:37;4.80;;;2.27;;
67737;SDS011;54534;43.612;1.572;2023-02-16T07:58:12;3.07;;;2.00;;
67737;SDS011;54534;43.612;1.572;2023-02-16T08:00:55;8.05;;;2.28;;
67737;SDS011;54534;43.612;1.572;2023-02-16T08:03:31;3.03;;;2.20;;
67737;SDS011;54534;43.612;1.572;2023-02-16T08:05:58;5.47;;;2.30;;
67737;SDS011;54534;43.612;1.572;2023-02-16T08:08:25;5.87;;;2.23;;
67737;SDS011;54534;43.612;1.572;2023-02-16T08:10:50;2.33;;;2.13;;
67737;SDS011;54534;43.612;1.572;2023-02-16T08:13:16;3.90;;;2.33;;
67737;SDS011;54534;43.612;1.572;2023-02-16T08:15:42;3.83;;;2.23;;
67737;SDS011;54534;43.612;1.572;2023-02-16T08:18:08;3.57;;;1.83;;
67737;SDS011;54534;43.612;1.572;2023-02-16T08:20:33;2.07;;;1.97;;
67737;SDS011;54534;43.612;1.572;2023-02-16T08:22:59;2.07;;;1.83;;
67737;SDS011;54534;43.612;1.572;2023-02-16T08:25:24;2.07;;;1.87;;
67737;SDS011;54534;43.612;1.572;2023-02-16T08:27:50;2.53;;;1.90;;
67737;SDS011;54534;43.612;1.572;2023-02-16T08:30:15;2.30;;;2.10;;
67737;SDS011;54534;43.612;1.572;2023-02-16T08:32:42;2.53;;;2.23;;
67737;SDS011;54534;43.612;1.572;2023-02-16T08:35:08;2.13;;;1.60;;
67737;SDS011;54534;43.612;1.572;2023-02-16T08:37:36;2.30;;;2.00;;
67737;SDS011;54534;43.612;1.572;2023-02-16T08:40:02;5.77;;;1.73;;
67737;SDS011;54534;43.612;1.572;2023-02-16T08:42:28;3.13;;;2.40;;
67737;SDS011;54534;43.612;1.572;2023-02-16T08:44:54;2.37;;;1.80;;
67737;SDS011;54534;43.612;1.572;2023-02-16T08:47:19;4.67;;;1.90;;
67737;SDS011;54534;43.612;1.572;2023-02-16T08:49:45;6.07;;;1.97;;
67737;SDS011;54534;43.612;1.572;2023-02-16T08:52:11;1.97;;;1.80;;
67737;SDS011;54534;43.612;1.572;2023-02-16T08:54:37;3.73;;;2.10;;
67737;SDS011;54534;43.612;1.572;2023-02-16T08:57:03;4.13;;;1.67;;
67737;SDS011;54534;43.612;1.572;2023-02-16T08:59:30;2.47;;;2.10;;
67737;SDS011;54534;43.612;1.572;2023-02-16T09:01:56;2.40;;;1.80;;
67737;SDS011;54534;43.612;1.572;2023-02-16T09:04:23;1.77;;;1.63;;
67737;SDS011;54534;43.612;1.572;2023-02-16T09:06:49;2.13;;;1.80;;
67737;SDS011;54534;43.612;1.572;2023-02-16T09:09:16;1.60;;;1.50;;
67737;SDS011;54534;43.612;1.572;2023-02-16T09:11:42;1.80;;;1.70;;
67737;SDS011;54534;43.612;1.572;2023-02-16T09:14:07;2.47;;;2.20;;
67737;SDS011;54534;43.612;1.572;2023-02-16T09:16:33;3.50;;;1.97;;
67737;SDS011;54534;43.612;1.572;2023-02-16T09:19:02;1.75;;;1.65;;
67737;SDS011;54534;43.612;1.572;2023-02-16T09:21:29;2.10;;;1.90;;
67737;SDS011;54534;43.612;1.572;2023-02-16T09:23:59;1.70;;;1.60;;
67737;SDS011;54534;43.612;1.572;2023-02-16T09:26:32;1.70;;;1.60;;
67737;SDS011;54534;43.612;1.572;2023-02-16T09:29:02;1.93;;;1.80;;
67737;SDS011;54534;43.612;1.572;2023-02-16T09:31:30;4.03;;;2.10;;
67737;SDS011;54534;43.612;1.572;2023-02-16T09:33:59;2.03;;;1.90;;
67737;SDS011;54534;43.612;1.572;2023-02-16T09:36:26;2.22;;;1.73;;
67737;SDS011;54534;43.612;1.572;2023-02-16T09:38:52;2.47;;;1.70;;
67737;SDS011;54534;43.612;1.572;2023-02-16T09:41:27;1.87;;;1.60;;
67737;SDS011;54534;43.612;1.572;2023-02-16T09:47:02;5.00;;;1.83;;
67737;SDS011;54534;43.612;1.572;2023-02-16T09:49:34;1.90;;;1.60;;
67737;SDS011;54534;43.612;1.572;2023-02-16T10:03:25;2.17;;;1.93;;
67737;SDS011;54534;43.612;1.572;2023-02-16T10:06:07;1.60;;;1.50;;
67737;SDS011;54534;43.612;1.572;2023-02-16T10:14:02;1.83;;;1.73;;
67737;SDS011;54534;43.612;1.572;2023-02-16T10:16:34;2.00;;;1.87;;
67737;SDS011;54534;43.612;1.572;2023-02-16T10:19:07;1.57;;;1.47;;
67737;SDS011;54534;43.612;1.572;2023-02-16T10:21:46;1.83;;;1.73;;
67737;SDS011;54534;43.612;1.572;2023-02-16T10:24:15;1.70;;;1.60;;
67737;SDS011;54534;43.612;1.572;2023-02-16T10:26:50;2.03;;;1.67;;
67737;SDS011;54534;43.612;1.572;2023-02-16T10:29:23;1.90;;;1.77;;
67737;SDS011;54534;43.612;1.572;2023-02-16T10:40:36;1.70;;;1.60;;
67737;SDS011;54534;43.612;1.572;2023-02-16T10:43:16;2.07;;;1.87;;
67737;SDS011;54534;43.612;1.572;2023-02-16T10:45:46;2.42;;;1.90;;
67737;SDS011;54534;43.612;1.572;2023-02-16T10:48:23;2.03;;;1.87;;
67737;SDS011;54534;43.612;1.572;2023-02-16T10:56:01;2.50;;;1.80;;
67737;SDS011;54534;43.612;1.572;2023-02-16T10:58:47;1.93;;;1.83;;
67737;SDS011;54534;43.612;1.572;2023-02-16T11:01:20;1.67;;;1.57;;
67737;SDS011;54534;43.612;1.572;2023-02-16T11:03:58;2.83;;;2.10;;
67737;SDS011;54534;43.612;1.572;2023-02-16T11:06:24;1.53;;;1.43;;
67737;SDS011;54534;43.612;1.572;2023-02-16T11:08:54;2.00;;;1.80;;
67737;SDS011;54534;43.612;1.572;2023-02-16T11:11:23;2.60;;;2.40;;
67737;SDS011;54534;43.612;1.572;2023-02-16T11:13:56;2.00;;;1.80;;
67737;SDS011;54534;43.612;1.572;2023-02-16T11:16:23;1.80;;;1.70;;
67737;SDS011;54534;43.612;1.572;2023-02-16T11:19:06;2.10;;;1.57;;
67737;SDS011;54534;43.612;1.572;2023-02-16T11:24:23;2.20;;;2.00;;
67737;SDS011;54534;43.612;1.572;2023-02-16T11:29:36;2.63;;;1.93;;
67737;SDS011;54534;43.612;1.572;2023-02-16T11:32:06;1.93;;;1.73;;
67737;SDS011;54534;43.612;1.572;2023-02-16T11:34:34;1.97;;;1.77;;
67737;SDS011;54534;43.612;1.572;2023-02-16T11:37:30;1.93;;;1.83;;
67737;SDS011;54534;43.612;1.572;2023-02-16T11:40:02;1.97;;;1.87;;
67737;SDS011;54534;43.612;1.572;2023-02-16T11:42:44;2.00;;;1.80;;
67737;SDS011;54534;43.612;1.572;2023-02-16T11:45:31;2.20;;;2.00;;
67737;SDS011;54534;43.612;1.572;2023-02-16T11:48:04;3.70;;;2.00;;
67737;SDS011;54534;43.612;1.572;2023-02-16T11:50:35;1.87;;;1.60;;
67737;SDS011;54534;43.612;1.572;2023-02-16T11:55:34;1.83;;;1.73;;
67737;SDS011;54534;43.612;1.572;2023-02-16T11:58:24;1.70;;;1.60;;
67737;SDS011;54534;43.612;1.572;2023-02-16T12:30:02;2.40;;;2.10;;
67737;SDS011;54534;43.612;1.572;2023-02-16T12:43:53;1.80;;;1.50;;
67737;SDS011;54534;43.612;1.572;2023-02-16T12:49:01;2.63;;;1.83;;
67737;SDS011;54534;43.612;1.572;2023-02-16T12:51:37;1.60;;;1.50;;
67737;SDS011;54534;43.612;1.572;2023-02-16T12:54:13;2.00;;;1.80;;
67737;SDS011;54534;43.612;1.572;2023-02-16T12:57:03;2.43;;;2.17;;
67737;SDS011;54534;43.612;1.572;2023-02-16T12:59:38;1.83;;;1.60;;
67737;SDS011;54534;43.612;1.572;2023-02-16T13:02:22;2.13;;;1.80;;
67737;SDS011;54534;43.612;1.572;2023-02-16T13:04:58;2.60;;;1.80;;
67737;SDS011;54534;43.612;1.572;2023-02-16T13:10:11;1.77;;;1.67;;
67737;SDS011;54534;43.612;1.572;2023-02-16T13:15:14;1.93;;;1.77;;
67737;SDS011;54534;43.612;1.572;2023-02-16T13:17:46;1.53;;;1.40;;
67737;SDS011;54534;43.612;1.572;2023-02-16T13:20:18;1.83;;;1.73;;
67737;SDS011;54534;43.612;1.572;2023-02-16T13:25:39;1.60;;;1.50;;
67737;SDS011;54534;43.612;1.572;2023-02-16T13:28:22;1.83;;;1.73;;
67737;SDS011;54534;43.612;1.572;2023-02-16T13:44:45;1.50;;;1.40;;
67737;SDS011;54534;43.612;1.572;2023-02-16T13:47:16;1.60;;;1.50;;
67737;SDS011;54534;43.612;1.572;2023-02-16T13:49:48;1.63;;;1.47;;
67737;SDS011;54534;43.612;1.572;2023-02-16T13:54:55;1.52;;;1.42;;
67737;SDS011;54534;43.612;1.572;2023-02-16T14:00:50;1.93;;;1.53;;
67737;SDS011;54534;43.612;1.572;2023-02-16T14:05:48;1.33;;;1.23;;
67737;SDS011;54534;43.612;1.572;2023-02-16T14:08:34;2.00;;;1.57;;
67737;SDS011;54534;43.612;1.572;2023-02-16T14:11:00;1.70;;;1.60;;
67737;SDS011;54534;43.612;1.572;2023-02-16T14:16:23;1.60;;;1.50;;
67737;SDS011;54534;43.612;1.572;2023-02-16T14:24:01;1.50;;;1.40;;
67737;SDS011;54534;43.612;1.572;2023-02-16T14:26:29;1.93;;;1.83;;
67737;SDS011;54534;43.612;1.572;2023-02-16T14:29:16;1.60;;;1.50;;
67737;SDS011;54534;43.612;1.572;2023-02-16T14:31:54;2.90;;;1.80;;
67737;SDS011;54534;43.612;1.572;2023-02-16T14:34:38;1.50;;;1.30;;
67737;SDS011;54534;43.612;1.572;2023-02-16T14:37:08;1.40;;;1.30;;
67737;SDS011;54534;43.612;1.572;2023-02-16T14:39:40;1.90;;;1.57;;
67737;SDS011;54534;43.612;1.572;2023-02-16T14:42:08;1.67;;;1.57;;
67737;SDS011;54534;43.612;1.572;2023-02-16T15:03:16;1.40;;;1.30;;
67737;SDS011;54534;43.612;1.572;2023-02-16T15:05:55;1.50;;;1.40;;
67737;SDS011;54534;43.612;1.572;2023-02-16T15:08:25;1.70;;;1.60;;
67737;SDS011;54534;43.612;1.572;2023-02-16T15:11:00;1.60;;;1.50;;
67737;SDS011;54534;43.612;1.572;2023-02-16T15:13:36;1.40;;;1.30;;
67737;SDS011;54534;43.612;1.572;2023-02-16T15:16:03;1.70;;;1.60;;
67737;SDS011;54534;43.612;1.572;2023-02-16T15:20:58;1.47;;;1.37;;
67737;SDS011;54534;43.612;1.572;2023-02-16T15:23:33;1.70;;;1.60;;
67737;SDS011;54534;43.612;1.572;2023-02-16T15:26:00;2.80;;;1.50;;
67737;SDS011;54534;43.612;1.572;2023-02-16T15:28:32;1.97;;;1.60;;
67737;SDS011;54534;43.612;1.572;2023-02-16T15:31:01;1.42;;;1.33;;
67737;SDS011;54534;43.612;1.572;2023-02-16T15:33:36;1.90;;;1.45;;
67737;SDS011;54534;43.612;1.572;2023-02-16T15:38:39;1.40;;;1.30;;
67737;SDS011;54534;43.612;1.572;2023-02-16T15:41:08;1.20;;;1.10;;
67737;SDS011;54534;43.612;1.572;2023-02-16T15:43:48;1.50;;;1.40;;
67737;SDS011;54534;43.612;1.572;2023-02-16T15:48:52;2.03;;;1.40;;
67737;SDS011;54534;43.612;1.572;2023-02-16T15:51:31;1.57;;;1.47;;
67737;SDS011;54534;43.612;1.572;2023-02-16T15:54:02;1.57;;;1.30;;
67737;SDS011;54534;43.612;1.572;2023-02-16T15:56:39;1.53;;;1.43;;
67737;SDS011;54534;43.612;1.572;2023-02-16T16:04:41;1.43;;;1.33;;
67737;SDS011;54534;43.612;1.572;2023-02-16T16:07:20;1.30;;;1.20;;
67737;SDS011;54534;43.612;1.572;2023-02-16T16:09:51;1.77;;;1.67;;
67737;SDS011;54534;43.612;1.572;2023-02-16T16:12:17;1.47;;;1.37;;
67737;SDS011;54534;43.612;1.572;2023-02-16T16:14:57;3.13;;;1.40;;
67737;SDS011;54534;43.612;1.572;2023-02-16T16:19:58;1.70;;;1.60;;
67737;SDS011;54534;43.612;1.572;2023-02-16T16:25:43;1.35;;;1.25;;
67737;SDS011;54534;43.612;1.572;2023-02-16T16:28:12;1.40;;;1.30;;
67737;SDS011;54534;43.612;1.572;2023-02-16T16:31:10;1.50;;;1.40;;
67737;SDS011;54534;43.612;1.572;2023-02-16T16:33:50;1.90;;;1.47;;
67737;SDS011;54534;43.612;1.572;2023-02-16T16:37:06;1.48;;;1.38;;
67737;SDS011;54534;43.612;1.572;2023-02-16T16:41:40;1.90;;;1.60;;
67737;SDS011;54534;43.612;1.572;2023-02-16T16:44:26;1.40;;;1.30;;
67737;SDS011;54534;43.612;1.572;2023-02-16T16:46:53;1.97;;;1.50;;
67737;SDS011;54534;43.612;1.572;2023-02-16T16:49:18;1.60;;;1.50;;
67737;SDS011;54534;43.612;1.572;2023-02-16T16:51:44;1.53;;;1.20;;
67737;SDS011;54534;43.612;1.572;2023-02-16T16:54:32;1.83;;;1.30;;
67737;SDS011;54534;43.612;1.572;2023-02-16T16:57:20;1.40;;;1.30;;
67737;SDS011;54534;43.612;1.572;2023-02-16T16:59:45;1.60;;;1.30;;
67737;SDS011;54534;43.612;1.572;2023-02-16T17:02:10;1.40;;;1.30;;
67737;SDS011;54534;43.612;1.572;2023-02-16T17:04:36;1.73;;;1.53;;
67737;SDS011;54534;43.612;1.572;2023-02-16T17:07:01;1.37;;;1.27;;
67737;SDS011;54534;43.612;1.572;2023-02-16T17:09:27;1.40;;;1.30;;
67737;SDS011;54534;43.612;1.572;2023-02-16T17:11:52;3.17;;;1.30;;
67737;SDS011;54534;43.612;1.572;2023-02-16T17:14:17;2.00;;;1.50;;
67737;SDS011;54534;43.612;1.572;2023-02-16T17:16:45;1.27;;;1.17;;
67737;SDS011;54534;43.612;1.572;2023-02-16T17:21:41;1.40;;;1.30;;
67737;SDS011;54534;43.612;1.572;2023-02-16T17:24:07;1.40;;;1.30;;
67737;SDS011;54534;43.612;1.572;2023-02-16T17:26:34;1.70;;;1.60;;
67737;SDS011;54534;43.612;1.572;2023-02-16T17:29:00;1.40;;;1.30;;
67737;SDS011;54534;43.612;1.572;2023-02-16T17:31:26;2.20;;;1.60;;
67737;SDS011;54534;43.612;1.572;2023-02-16T17:33:51;1.57;;;1.47;;
67737;SDS011;54534;43.612;1.572;2023-02-16T17:36:17;2.43;;;1.50;;
67737;SDS011;54534;43.612;1.572;2023-02-16T17:38:44;2.77;;;2.17;;
67737;SDS011;54534;43.612;1.572;2023-02-16T17:41:15;1.90;;;1.70;;
67737;SDS011;54534;43.612;1.572;2023-02-16T17:43:45;1.70;;;1.60;;
67737;SDS011;54534;43.612;1.572;2023-02-16T17:46:10;3.23;;;1.60;;
67737;SDS011;54534;43.612;1.572;2023-02-16T17:48:37;1.60;;;1.50;;
67737;SDS011;54534;43.612;1.572;2023-02-16T17:51:02;2.10;;;1.50;;
67737;SDS011;54534;43.612;1.572;2023-02-16T17:53:28;1.87;;;1.73;;
67737;SDS011;54534;43.612;1.572;2023-02-16T17:55:55;1.97;;;1.70;;
67737;SDS011;54534;43.612;1.572;2023-02-16T17:58:22;1.77;;;1.60;;
67737;SDS011;54534;43.612;1.572;2023-02-16T18:00:49;1.37;;;1.27;;
67737;SDS011;54534;43.612;1.572;2023-02-16T18:03:15;1.90;;;1.53;;
67737;SDS011;54534;43.612;1.572;2023-02-16T18:05:41;2.03;;;1.83;;
67737;SDS011;54534;43.612;1.572;2023-02-16T18:08:09;1.73;;;1.63;;
67737;SDS011;54534;43.612;1.572;2023-02-16T18:13:10;60.93;;;4.33;;
67737;SDS011;54534;43.612;1.572;2023-02-16T18:15:37;2.80;;;2.23;;
67737;SDS011;54534;43.612;1.572;2023-02-16T18:18:04;8.23;;;2.33;;
67737;SDS011;54534;43.612;1.572;2023-02-16T18:20:30;3.03;;;2.40;;
67737;SDS011;54534;43.612;1.572;2023-02-16T18:22:56;5.37;;;2.77;;
67737;SDS011;54534;43.612;1.572;2023-02-16T18:25:21;3.57;;;2.30;;
67737;SDS011;54534;43.612;1.572;2023-02-16T18:27:47;14.80;;;2.70;;
67737;SDS011;54534;43.612;1.572;2023-02-16T18:30:13;4.80;;;2.70;;
67737;SDS011;54534;43.612;1.572;2023-02-16T18:32:39;5.17;;;2.50;;
67737;SDS011;54534;43.612;1.572;2023-02-16T18:35:06;7.13;;;3.10;;